Time;durP1;ratioP1;P1;durP2;ratioP2;P2;SDS_P1;SDS_P2;PMS_P1;PMS_P2;Temp;Humidity;BMP_temperature;BMP_pressure;BME280_temperature;BME280_humidity;BME280_pressure;Samples;Min_cycle;Max_cycle;Signal;HPM_P1;HPM_P2
2021/08/22 00:00:30;;;;;;;65.55;11.13;;;14.60;99.90;;;;;;4940712;29;20034;-94
2021/08/22 00:02:56;;;;;;;90.85;13.00;;;14.60;99.90;;;;;;4941044;29;20031;-95
2021/08/22 00:05:22;;;;;;;38.78;11.38;;;14.50;99.90;;;;;;4940379;29;20030;-92
2021/08/22 00:07:47;;;;;;;49.35;11.75;;;14.50;99.90;;;;;;4895493;28;1313848;-92
2021/08/22 00:10:13;;;;;;;19.85;11.60;;;14.50;99.90;;;;;;4942009;29;20027;-94
2021/08/22 00:12:40;;;;;;;22.42;12.05;;;14.50;99.90;;;;;;4942081;29;20039;-93
2021/08/22 00:15:07;;;;;;;26.45;11.57;;;14.50;99.90;;;;;;4945926;29;20015;-92
2021/08/22 00:17:33;;;;;;;25.42;12.85;;;14.50;99.90;;;;;;4957402;29;20098;-94
2021/08/22 00:20:02;;;;;;;30.40;13.02;;;14.50;99.90;;;;;;4956614;29;20473;-93
2021/08/22 00:22:27;;;;;;;53.92;14.30;;;14.50;99.90;;;;;;4951972;29;20548;-93
2021/08/22 00:24:56;;;;;;;35.60;13.55;;;14.50;99.90;;;;;;4945748;29;20051;-93
2021/08/22 00:27:21;;;;;;;48.08;13.50;;;14.50;99.90;;;;;;4944209;29;20031;-94
2021/08/22 00:29:48;;;;;;;29.52;12.25;;;14.50;99.90;;;;;;4958774;29;20019;-93
2021/08/22 00:32:14;;;;;;;33.05;12.45;;;14.50;99.90;;;;;;4940438;29;20096;-93
2021/08/22 00:34:40;;;;;;;24.70;11.90;;;14.40;99.90;;;;;;4941240;29;20062;-94
2021/08/22 00:37:06;;;;;;;18.30;11.70;;;14.40;99.90;;;;;;4941010;29;20075;-94
2021/08/22 00:39:31;;;;;;;21.67;12.93;;;14.50;99.90;;;;;;4940770;29;20035;-92
2021/08/22 00:42:01;;;;;;;21.30;12.73;;;14.40;99.90;;;;;;4940066;29;20093;-93
2021/08/22 00:44:27;;;;;;;21.85;12.20;;;14.50;99.90;;;;;;4940363;29;20020;-92
2021/08/22 00:46:57;;;;;;;21.50;13.57;;;14.50;99.90;;;;;;4939420;29;20030;-94
2021/08/22 00:49:29;;;;;;;28.05;14.10;;;14.50;99.90;;;;;;4939289;29;20163;-94
2021/08/22 00:51:57;;;;;;;28.58;15.15;;;14.50;99.90;;;;;;4939781;29;20035;-94
2021/08/22 00:54:23;;;;;;;29.58;14.15;;;14.50;99.90;;;;;;4939718;29;20402;-93
2021/08/22 00:56:52;;;;;;;23.98;13.98;;;14.50;99.90;;;;;;4939313;29;20035;-94
2021/08/22 00:59:19;;;;;;;26.38;14.45;;;14.50;99.90;;;;;;4939463;29;20066;-94
2021/08/22 01:01:49;;;;;;;25.60;14.02;;;14.50;99.90;;;;;;4939577;29;20051;-94
2021/08/22 01:04:20;;;;;;;28.20;14.93;;;14.50;99.90;;;;;;4939458;29;20036;-93
2021/08/22 01:06:55;;;;;;;27.45;14.25;;;14.50;99.90;;;;;;4939401;29;20115;-93
2021/08/22 01:09:34;;;;;;;25.92;13.77;;;14.50;99.90;;;;;;4938947;29;20051;-92
2021/08/22 01:12:09;;;;;;;26.80;14.70;;;14.40;99.90;;;;;;4939330;29;20560;-93
2021/08/22 01:14:39;;;;;;;29.10;14.93;;;14.40;99.90;;;;;;4939275;29;20027;-92
2021/08/22 01:17:05;;;;;;;29.98;14.57;;;14.50;99.90;;;;;;4939061;29;20059;-93
2021/08/22 01:19:34;;;;;;;32.90;14.23;;;14.40;99.90;;;;;;4938762;29;20050;-92
2021/08/22 01:22:03;;;;;;;48.55;15.30;;;14.40;99.90;;;;;;4938917;29;20039;-93
2021/08/22 01:24:29;;;;;;;36.67;14.98;;;14.40;99.90;;;;;;4938854;29;20027;-91
2021/08/22 01:26:59;;;;;;;40.03;14.85;;;14.40;99.90;;;;;;4938685;29;20050;-94
2021/08/22 01:29:31;;;;;;;37.97;15.52;;;14.40;99.90;;;;;;4938988;29;20118;-94
2021/08/22 01:31:59;;;;;;;28.30;15.13;;;14.40;99.90;;;;;;4939374;29;20121;-93
2021/08/22 01:34:26;;;;;;;28.38;15.07;;;14.40;99.90;;;;;;4958472;29;20030;-93
2021/08/22 01:36:53;;;;;;;32.65;13.68;;;14.40;99.90;;;;;;4944812;29;20031;-92
2021/08/22 01:39:19;;;;;;;66.35;15.07;;;14.40;99.90;;;;;;4939320;29;20392;-93
2021/08/22 01:41:48;;;;;;;33.55;14.60;;;14.40;99.90;;;;;;4939183;29;20031;-93
2021/08/22 01:44:17;;;;;;;89.72;15.85;;;14.40;99.90;;;;;;4939556;29;20027;-93
2021/08/22 01:46:57;;;;;;;100.10;15.65;;;14.40;99.90;;;;;;4939140;29;20027;-93
2021/08/22 01:49:26;;;;;;;78.22;14.32;;;14.40;99.90;;;;;;4942439;29;20024;-92
2021/08/22 01:51:52;;;;;;;56.03;14.68;;;14.30;99.90;;;;;;4942676;29;20436;-92
2021/08/22 01:54:18;;;;;;;103.47;15.60;;;14.30;99.90;;;;;;4943212;29;20106;-94
2021/08/22 01:56:44;;;;;;;135.40;15.93;;;14.40;99.90;;;;;;4943201;29;20051;-94
2021/08/22 01:59:09;;;;;;;54.45;15.00;;;14.30;99.90;;;;;;4943909;29;20110;-94
2021/08/22 02:01:36;;;;;;;143.70;15.27;;;14.30;99.90;;;;;;4943614;29;20027;-94
2021/08/22 02:04:20;;;;;;;77.80;16.95;;;14.30;99.90;;;;;;4943443;29;20114;-94
2021/08/22 02:07:01;;;;;;;109.28;15.85;;;14.20;99.90;;;;;;4943282;29;20533;-94
2021/08/22 02:09:34;;;;;;;106.85;18.48;;;14.30;99.90;;;;;;4937552;29;20489;-93
2021/08/22 02:12:09;;;;;;;57.30;15.52;;;14.30;99.90;;;;;;4942886;29;20485;-93
2021/08/22 02:14:39;;;;;;;29.20;15.15;;;14.30;99.90;;;;;;4943085;29;20504;-94
2021/08/22 02:17:07;;;;;;;49.03;15.23;;;14.20;99.90;;;;;;4943241;29;20030;-93
2021/08/22 02:19:34;;;;;;;37.03;16.05;;;14.30;99.90;;;;;;4942536;29;20034;-93
2021/08/22 02:22:00;;;;;;;28.95;15.55;;;14.30;99.90;;;;;;4943077;29;20139;-93
2021/08/22 02:24:26;;;;;;;29.08;14.85;;;14.30;99.90;;;;;;4943157;29;20023;-92
2021/08/22 02:26:52;;;;;;;50.90;15.85;;;14.30;99.90;;;;;;4942996;29;20031;-91
2021/08/22 02:29:18;;;;;;;27.67;15.25;;;14.30;99.90;;;;;;4942310;29;20027;-92
2021/08/22 02:31:45;;;;;;;27.67;14.80;;;14.30;99.90;;;;;;4942520;29;20039;-92
2021/08/22 02:34:10;;;;;;;32.10;15.68;;;14.30;99.90;;;;;;4943131;29;20130;-92
2021/08/22 02:36:36;;;;;;;25.75;15.32;;;14.40;99.90;;;;;;4943072;29;20062;-92
2021/08/22 02:39:02;;;;;;;29.33;15.32;;;14.40;99.90;;;;;;4942414;29;20138;-91
2021/08/22 02:41:28;;;;;;;24.08;14.70;;;14.40;99.90;;;;;;4942166;29;20027;-91
2021/08/22 02:43:54;;;;;;;25.50;13.98;;;14.40;99.90;;;;;;4942622;29;20414;-92
2021/08/22 02:46:21;;;;;;;24.83;14.43;;;14.50;99.90;;;;;;4942422;29;20023;-92
2021/08/22 02:48:46;;;;;;;24.42;13.35;;;14.50;99.90;;;;;;4942451;29;20059;-92
2021/08/22 02:51:12;;;;;;;24.33;13.20;;;14.50;99.90;;;;;;4926807;29;20027;-92
2021/08/22 02:53:38;;;;;;;24.13;13.55;;;14.50;99.90;;;;;;4942449;29;20038;-92
2021/08/22 02:56:04;;;;;;;24.10;14.70;;;14.50;99.90;;;;;;4941844;29;20030;-93
2021/08/22 02:58:30;;;;;;;25.90;14.48;;;14.50;99.90;;;;;;4941826;29;20031;-93
2021/08/22 03:00:55;;;;;;;25.13;14.35;;;14.50;99.90;;;;;;4942439;29;20114;-92
2021/08/22 03:03:21;;;;;;;27.38;14.48;;;14.50;99.90;;;;;;4942213;29;20491;-93
2021/08/22 03:05:47;;;;;;;26.35;14.93;;;14.50;99.90;;;;;;4941933;29;20041;-93
2021/08/22 03:08:14;;;;;;;30.52;15.10;;;14.50;99.90;;;;;;4935335;29;20055;-93
2021/08/22 03:10:40;;;;;;;27.00;14.57;;;14.50;99.90;;;;;;4922921;29;20032;-94
2021/08/22 03:13:05;;;;;;;31.02;16.25;;;14.50;99.90;;;;;;4922775;29;20099;-93
2021/08/22 03:15:31;;;;;;;25.70;14.95;;;14.50;99.90;;;;;;4923482;29;20504;-94
2021/08/22 03:17:57;;;;;;;25.02;15.48;;;14.50;99.90;;;;;;4923118;29;20183;-94
2021/08/22 03:20:22;;;;;;;30.58;15.50;;;14.50;99.90;;;;;;4923303;29;20031;-93
2021/08/22 03:22:48;;;;;;;26.35;14.48;;;14.50;99.90;;;;;;4922630;29;20371;-92
2021/08/22 03:25:14;;;;;;;27.63;14.90;;;14.50;99.90;;;;;;4922842;29;20501;-93
2021/08/22 03:27:40;;;;;;;25.52;15.23;;;14.40;99.90;;;;;;4922389;29;20611;-93
2021/08/22 03:30:07;;;;;;;23.60;13.38;;;14.50;99.90;;;;;;4922281;29;20099;-92
2021/08/22 03:32:33;;;;;;;23.63;13.27;;;14.50;99.90;;;;;;4922121;29;20040;-93
2021/08/22 03:34:58;;;;;;;23.85;14.48;;;14.50;99.90;;;;;;4922866;29;20122;-93
2021/08/22 03:37:27;;;;;;;25.38;14.93;;;14.50;99.90;;;;;;4922143;29;20066;-93
2021/08/22 03:39:54;;;;;;;28.10;15.23;;;14.50;99.90;;;;;;4922141;29;20118;-94
2021/08/22 03:42:20;;;;;;;29.80;15.80;;;14.50;99.90;;;;;;4922377;29;20035;-94
2021/08/22 03:44:46;;;;;;;28.15;14.50;;;14.50;99.90;;;;;;4922250;29;20028;-93
2021/08/22 03:47:11;;;;;;;27.08;15.27;;;14.50;99.90;;;;;;4921811;29;20379;-93
2021/08/22 03:49:37;;;;;;;27.20;14.68;;;14.50;99.90;;;;;;4922130;29;20605;-93
2021/08/22 03:52:05;;;;;;;27.17;15.48;;;14.50;99.90;;;;;;4921929;29;20093;-94
2021/08/22 03:54:34;;;;;;;25.70;14.77;;;14.60;99.90;;;;;;4922003;29;20035;-92
2021/08/22 03:57:00;;;;;;;25.10;14.52;;;14.60;99.90;;;;;;4921691;29;20042;-93
2021/08/22 03:59:25;;;;;;;25.92;13.65;;;14.60;99.90;;;;;;4921984;29;20036;-93
2021/08/22 04:01:52;;;;;;;27.90;13.55;;;14.60;99.90;;;;;;4921676;29;20036;-92
2021/08/22 04:04:17;;;;;;;27.77;14.75;;;14.60;99.90;;;;;;4922536;29;20028;-94
2021/08/22 04:06:51;;;;;;;30.05;15.90;;;14.60;99.90;;;;;;4921721;29;20050;-93
2021/08/22 04:09:18;;;;;;;30.13;13.80;;;14.60;99.90;;;;;;4935847;29;20062;-92
2021/08/22 04:11:46;;;;;;;23.30;13.27;;;14.60;99.90;;;;;;4940520;29;20035;-93
2021/08/22 04:14:12;;;;;;;22.33;12.73;;;14.60;99.90;;;;;;4940880;29;20042;-94
2021/08/22 04:16:38;;;;;;;27.83;14.13;;;14.60;99.90;;;;;;4940466;29;20035;-92
2021/08/22 04:19:04;;;;;;;26.52;13.75;;;14.60;99.90;;;;;;4940784;29;20038;-92
2021/08/22 04:21:33;;;;;;;26.42;13.50;;;14.60;99.90;;;;;;4940376;29;20535;-92
2021/08/22 04:23:58;;;;;;;25.63;13.68;;;14.70;99.90;;;;;;4940346;29;20444;-91
2021/08/22 04:26:24;;;;;;;24.85;13.10;;;14.70;99.90;;;;;;4940096;29;20118;-91
2021/08/22 04:28:50;;;;;;;27.35;12.85;;;14.70;99.90;;;;;;4940037;29;20023;-91
2021/08/22 04:31:16;;;;;;;20.77;13.05;;;14.70;99.90;;;;;;4939906;29;20071;-91
2021/08/22 04:33:41;;;;;;;24.98;13.05;;;14.70;99.90;;;;;;4940153;29;20035;-92
2021/08/22 04:36:07;;;;;;;19.90;11.80;;;14.70;99.90;;;;;;4939908;29;20128;-90
2021/08/22 04:38:36;;;;;;;23.50;12.23;;;14.70;99.90;;;;;;4939695;29;20027;-91
2021/08/22 04:41:09;;;;;;;24.77;12.93;;;14.70;99.90;;;;;;4939610;29;20027;-90
2021/08/22 04:43:35;;;;;;;25.13;13.10;;;14.70;99.90;;;;;;4939225;29;20031;-91
2021/08/22 04:46:00;;;;;;;23.60;12.68;;;14.70;99.90;;;;;;4939974;29;20297;-93
2021/08/22 04:48:27;;;;;;;21.73;12.00;;;14.70;99.90;;;;;;4940080;29;20074;-93
2021/08/22 04:50:53;;;;;;;21.50;12.18;;;14.70;99.90;;;;;;4940268;29;20034;-93
2021/08/22 04:53:19;;;;;;;22.00;12.60;;;14.80;99.90;;;;;;4939891;29;20043;-91
2021/08/22 04:55:44;;;;;;;23.92;12.50;;;14.80;99.90;;;;;;4940049;29;20050;-91
2021/08/22 04:58:10;;;;;;;24.45;13.32;;;14.80;99.90;;;;;;4939688;29;20032;-92
2021/08/22 05:00:36;;;;;;;25.25;13.18;;;14.80;99.90;;;;;;4939647;29;20112;-92
2021/08/22 05:03:02;;;;;;;25.05;13.55;;;14.80;99.90;;;;;;4939919;29;20031;-92
2021/08/22 05:05:28;;;;;;;25.55;13.75;;;14.90;99.90;;;;;;4939621;29;20031;-91
2021/08/22 05:07:57;;;;;;;25.95;14.10;;;14.80;99.90;;;;;;4935963;29;20063;-92
2021/08/22 05:10:23;;;;;;;27.13;14.73;;;14.90;99.90;;;;;;4920507;29;20032;-92
2021/08/22 05:12:49;;;;;;;31.42;15.85;;;14.90;99.90;;;;;;4920951;29;20058;-92
2021/08/22 05:15:14;;;;;;;30.98;16.20;;;14.90;99.90;;;;;;4920891;29;20091;-92
2021/08/22 05:17:41;;;;;;;30.38;15.07;;;14.90;99.90;;;;;;4937503;29;20084;-90
2021/08/22 05:20:08;;;;;;;30.75;16.25;;;15.00;99.90;;;;;;4920277;29;20058;-91
2021/08/22 05:22:34;;;;;;;34.67;17.75;;;15.00;99.90;;;;;;4922628;29;20035;-91
2021/08/22 05:25:00;;;;;;;31.02;17.40;;;15.00;99.90;;;;;;4924300;29;20512;-94
2021/08/22 05:27:26;;;;;;;37.95;18.40;;;15.00;99.90;;;;;;4924006;29;20032;-92
2021/08/22 05:29:51;;;;;;;32.63;17.05;;;15.00;99.90;;;;;;4924256;29;20099;-91
2021/08/22 05:32:17;;;;;;;33.47;17.70;;;15.10;99.90;;;;;;4924322;29;20127;-92
2021/08/22 05:34:44;;;;;;;34.08;17.05;;;15.10;99.90;;;;;;4923927;29;20056;-94
2021/08/22 05:37:10;;;;;;;32.78;18.77;;;15.10;99.90;;;;;;4924095;29;20044;-94
2021/08/22 05:39:36;;;;;;;28.92;17.58;;;15.10;99.90;;;;;;4924289;29;20024;-94
2021/08/22 05:42:03;;;;;;;26.95;15.73;;;15.20;99.90;;;;;;4924951;29;20035;-94
2021/08/22 05:44:30;;;;;;;26.92;16.77;;;15.20;99.90;;;;;;4925320;29;20027;-92
2021/08/22 05:46:56;;;;;;;24.67;14.48;;;15.20;99.90;;;;;;4935188;29;20031;-92
2021/08/22 05:49:22;;;;;;;24.55;14.85;;;15.10;99.90;;;;;;4941642;29;20063;-91
2021/08/22 05:51:49;;;;;;;24.85;13.52;;;15.10;99.90;;;;;;4943315;29;20040;-93
2021/08/22 05:54:14;;;;;;;26.73;13.63;;;15.10;99.90;;;;;;4941471;29;20039;-93
2021/08/22 05:56:40;;;;;;;23.98;14.32;;;15.10;99.90;;;;;;4943577;29;20091;-93
2021/08/22 05:59:06;;;;;;;27.67;15.00;;;15.00;99.90;;;;;;4940892;29;20038;-92
2021/08/22 06:01:31;;;;;;;28.23;14.45;;;15.00;99.90;;;;;;4929202;29;20028;-93
2021/08/22 06:03:57;;;;;;;34.17;15.48;;;15.10;99.90;;;;;;4929563;29;20553;-92
2021/08/22 06:06:23;;;;;;;24.45;15.45;;;15.00;99.90;;;;;;4927030;29;20167;-93
2021/08/22 06:08:49;;;;;;;26.67;15.50;;;15.10;99.90;;;;;;4936679;29;20374;-93
2021/08/22 06:11:15;;;;;;;25.88;15.63;;;15.10;99.90;;;;;;4944555;29;20031;-92
2021/08/22 06:13:41;;;;;;;27.88;16.25;;;15.10;99.90;;;;;;4944754;29;20061;-92
2021/08/22 06:16:06;;;;;;;27.50;15.68;;;15.10;99.90;;;;;;4943702;29;20031;-92
2021/08/22 06:18:32;;;;;;;27.00;16.52;;;15.20;99.90;;;;;;4943715;29;20062;-92
2021/08/22 06:20:58;;;;;;;28.50;15.77;;;15.20;99.90;;;;;;4943304;29;20035;-92
2021/08/22 06:23:24;;;;;;;27.05;15.23;;;15.20;99.90;;;;;;4943475;29;20110;-93
2021/08/22 06:25:49;;;;;;;35.30;15.95;;;15.20;99.90;;;;;;4943513;29;20062;-92
2021/08/22 06:28:15;;;;;;;28.33;15.82;;;15.20;99.90;;;;;;4944138;29;20031;-92
2021/08/22 06:30:42;;;;;;;27.10;16.65;;;15.30;99.90;;;;;;4943350;29;20129;-92
2021/08/22 06:33:09;;;;;;;24.15;14.05;;;15.30;99.90;;;;;;4942568;29;20133;-94
2021/08/22 06:35:35;;;;;;;24.50;13.30;;;15.30;99.90;;;;;;4943930;29;20027;-93
2021/08/22 06:38:01;;;;;;;25.90;13.13;;;15.40;99.90;;;;;;4943342;29;20027;-92
2021/08/22 06:40:27;;;;;;;25.42;14.45;;;15.40;99.90;;;;;;4943042;29;20126;-92
2021/08/22 06:42:52;;;;;;;30.58;14.48;;;15.40;99.90;;;;;;4943733;29;20031;-92
2021/08/22 06:45:18;;;;;;;23.42;13.60;;;15.40;99.90;;;;;;4955662;29;20035;-93
2021/08/22 06:47:51;;;;;;;20.80;14.00;;;15.50;99.90;;;;;;4945064;29;20023;-93
2021/08/22 06:50:17;;;;;;;19.70;12.20;;;15.50;99.90;;;;;;4946675;29;20106;-92
2021/08/22 06:52:43;;;;;;;20.58;11.75;;;15.50;99.90;;;;;;4945904;29;20082;-91
2021/08/22 06:55:09;;;;;;;21.40;11.80;;;15.50;99.90;;;;;;4947660;29;20386;-93
2021/08/22 06:57:34;;;;;;;24.27;12.40;;;15.50;99.90;;;;;;4945369;29;20048;-92
2021/08/22 07:00:00;;;;;;;21.27;11.88;;;15.60;99.90;;;;;;4946562;29;20036;-92
2021/08/22 07:02:26;;;;;;;20.35;12.18;;;15.60;99.90;;;;;;4945416;29;20098;-92
2021/08/22 07:04:52;;;;;;;21.40;11.60;;;15.60;99.90;;;;;;4944274;29;20122;-92
2021/08/22 07:07:17;;;;;;;19.85;10.15;;;15.70;99.90;;;;;;4943634;29;20511;-92
2021/08/22 07:09:43;;;;;;;19.90;11.15;;;15.70;99.90;;;;;;4942923;29;20086;-92
2021/08/22 07:12:09;;;;;;;17.35;11.75;;;15.70;99.90;;;;;;4944851;29;20062;-93
2021/08/22 07:14:35;;;;;;;18.73;10.68;;;15.80;99.90;;;;;;4943226;29;20481;-93
2021/08/22 07:17:01;;;;;;;14.77;9.77;;;15.80;99.90;;;;;;4943583;29;20564;-92
2021/08/22 07:19:28;;;;;;;15.05;9.85;;;15.80;99.90;;;;;;4942447;29;20023;-93
2021/08/22 07:21:54;;;;;;;16.77;9.18;;;15.80;99.90;;;;;;4943406;29;20031;-94
2021/08/22 07:24:20;;;;;;;16.88;10.40;;;15.80;99.90;;;;;;4942971;29;20027;-94
2021/08/22 07:26:45;;;;;;;14.55;9.05;;;15.80;99.90;;;;;;4942009;29;20050;-94
2021/08/22 07:29:11;;;;;;;16.55;8.68;;;15.80;99.90;;;;;;4941852;29;20053;-92
2021/08/22 07:31:37;;;;;;;16.20;7.78;;;15.80;99.90;;;;;;4941757;29;20097;-93
2021/08/22 07:34:03;;;;;;;18.35;8.73;;;15.90;99.90;;;;;;4942396;29;20118;-94
2021/08/22 07:36:28;;;;;;;18.52;9.20;;;15.90;99.90;;;;;;4942011;29;20393;-94
2021/08/22 07:38:54;;;;;;;12.52;8.35;;;15.90;99.90;;;;;;4942252;29;20559;-94
2021/08/22 07:41:20;;;;;;;17.77;8.32;;;15.90;99.90;;;;;;4942272;29;20081;-93
2021/08/22 07:43:45;;;;;;;16.15;8.60;;;15.90;99.90;;;;;;4942638;29;20031;-94
2021/08/22 07:46:11;;;;;;;15.13;7.50;;;16.00;99.90;;;;;;4942899;29;20039;-93
2021/08/22 07:48:37;;;;;;;15.65;8.13;;;16.10;99.90;;;;;;4941934;29;20054;-95
2021/08/22 07:51:03;;;;;;;12.43;6.70;;;16.10;99.90;;;;;;4942137;29;20519;-94
2021/08/22 07:53:29;;;;;;;16.33;7.35;;;16.20;99.90;;;;;;4942674;29;20039;-93
2021/08/22 07:55:56;;;;;;;11.30;6.93;;;16.30;99.90;;;;;;4941880;29;20024;-94
2021/08/22 07:58:21;;;;;;;9.27;6.88;;;16.40;99.90;;;;;;4942237;29;20063;-94
2021/08/22 08:00:47;;;;;;;8.50;6.22;;;16.50;99.90;;;;;;4941293;29;20023;-93
2021/08/22 08:03:14;;;;;;;19.52;6.20;;;16.60;99.90;;;;;;4940149;29;20062;-92
2021/08/22 08:05:40;;;;;;;10.18;5.63;;;16.70;99.90;;;;;;4940460;29;20179;-93
2021/08/22 08:08:06;;;;;;;12.00;5.45;;;16.80;99.90;;;;;;4940326;29;20588;-91
2021/08/22 08:10:31;;;;;;;9.35;4.80;;;16.90;99.90;;;;;;4941302;29;20027;-94
2021/08/22 08:12:57;;;;;;;10.25;4.78;;;17.00;99.90;;;;;;4942617;29;20035;-94
2021/08/22 08:15:23;;;;;;;7.78;4.95;;;17.00;99.90;;;;;;4940664;29;20126;-94
2021/08/22 08:17:48;;;;;;;9.00;5.68;;;17.10;99.90;;;;;;4940416;29;20660;-94
2021/08/22 08:20:14;;;;;;;9.48;5.10;;;17.10;99.90;;;;;;4940295;29;20151;-94
2021/08/22 08:22:40;;;;;;;9.82;5.93;;;17.10;99.90;;;;;;4941456;29;20111;-94
2021/08/22 08:25:06;;;;;;;9.18;5.55;;;17.10;99.90;;;;;;4940866;29;20031;-95
2021/08/22 08:27:32;;;;;;;8.55;4.97;;;17.10;99.90;;;;;;4940022;29;20031;-94
2021/08/22 08:29:58;;;;;;;8.05;5.10;;;17.10;99.90;;;;;;4956049;28;20039;-93
2021/08/22 08:32:24;;;;;;;8.02;4.93;;;17.10;99.90;;;;;;4938743;29;20042;-92
2021/08/22 08:34:49;;;;;;;8.27;5.13;;;17.10;99.90;;;;;;4937875;29;20023;-93
2021/08/22 08:37:16;;;;;;;6.60;4.70;;;17.00;99.90;;;;;;4938108;29;20043;-96
2021/08/22 08:39:41;;;;;;;9.68;5.00;;;17.00;99.90;;;;;;4939335;29;20456;-94
2021/08/22 08:42:17;;;;;;;8.40;5.05;;;17.00;99.90;;;;;;4938045;29;20019;-93
2021/08/22 08:44:43;;;;;;;11.50;5.88;;;17.00;99.90;;;;;;4936614;29;20055;-93
2021/08/22 08:47:11;;;;;;;8.75;5.40;;;17.00;99.90;;;;;;4939519;29;20027;-94
2021/08/22 08:50:09;;;;;;;10.93;5.50;;;17.00;99.90;;;;;;4937801;29;20039;-93
2021/08/22 08:52:40;;;;;;;11.93;5.30;;;17.10;99.90;;;;;;4935465;29;20081;-92
2021/08/22 08:55:18;;;;;;;9.18;4.90;;;17.10;99.90;;;;;;4939052;29;20030;-92
2021/08/22 08:57:43;;;;;;;15.40;5.32;;;17.10;99.90;;;;;;4941705;29;20039;-92
2021/08/22 09:00:16;;;;;;;8.70;5.07;;;17.10;99.90;;;;;;4942804;29;20015;-92
2021/08/22 09:02:44;;;;;;;8.30;4.50;;;17.10;99.90;;;;;;4947816;29;20034;-91
2021/08/22 09:05:27;;;;;;;10.40;5.18;;;17.10;99.90;;;;;;4956038;28;20393;-92
2021/08/22 09:08:30;;;;;;;10.88;5.40;;;17.20;99.90;;;;;;4953419;29;20047;-91
2021/08/22 09:11:15;;;;;;;9.18;4.88;;;17.20;99.90;;;;;;4936328;29;20091;-92
2021/08/22 09:14:04;;;;;;;14.15;5.00;;;17.30;99.90;;;;;;4938630;29;20047;-93
2021/08/22 09:17:06;;;;;;;9.80;5.78;;;17.20;99.90;;;;;;4874355;29;20047;-91
2021/08/22 09:20:09;;;;;;;7.35;4.93;;;17.20;99.90;;;;;;4855222;29;20147;-91
2021/08/22 09:23:11;;;;;;;8.48;4.85;;;17.30;99.90;;;;;;4855033;29;20029;-91
2021/08/22 09:26:14;;;;;;;9.52;6.00;;;17.30;99.90;;;;;;4861649;29;20065;-92
2021/08/22 09:29:21;;;;;;;7.82;5.10;;;17.30;99.90;;;;;;4855830;29;20033;-91
2021/08/22 09:32:24;;;;;;;8.93;5.03;;;17.30;99.90;;;;;;4856675;29;20029;-92
2021/08/22 09:35:14;;;;;;;9.85;4.97;;;17.30;99.90;;;;;;4861375;29;20038;-92
2021/08/22 09:37:52;;;;;;;8.95;5.20;;;17.30;99.90;;;;;;4843114;29;20038;-91
2021/08/22 09:40:55;;;;;;;12.48;6.05;;;17.30;99.90;;;;;;4862107;29;20030;-92
2021/08/22 09:43:57;;;;;;;14.45;5.82;;;17.40;99.90;;;;;;4853121;29;20116;-91
2021/08/22 09:47:21;;;;;;;9.20;4.95;;;17.40;99.90;;;;;;4854997;29;20744;-93
2021/08/22 09:50:21;;;;;;;8.88;5.25;;;17.40;99.90;;;;;;4800405;30;20183;-94
2021/08/22 09:53:24;;;;;;;9.88;5.43;;;17.40;99.90;;;;;;4788025;29;20057;-93
2021/08/22 09:56:23;;;;;;;9.13;4.88;;;17.50;99.90;;;;;;4842279;29;20103;-94
2021/08/22 09:59:26;;;;;;;9.55;5.05;;;17.60;99.90;;;;;;4851080;29;20034;-94
2021/08/22 10:02:27;;;;;;;8.15;4.85;;;17.70;99.90;;;;;;4840745;29;20226;-94
2021/08/22 10:04:58;;;;;;;8.18;5.40;;;17.70;99.90;;;;;;4835710;29;20030;-95
2021/08/22 10:07:42;;;;;;;10.30;5.72;;;17.80;99.90;;;;;;4840185;29;20042;-94
2021/08/22 10:10:12;;;;;;;9.13;5.57;;;17.80;99.90;;;;;;4840273;29;20042;-92
2021/08/22 10:12:38;;;;;;;;;;;17.90;99.90;;;;;;4841346;29;20061;-93
2021/08/22 10:15:04;;;;;;;9.73;4.72;;;17.90;99.90;;;;;;4857016;29;19924;-94
2021/08/22 10:17:30;;;;;;;6.30;4.78;;;18.00;99.90;;;;;;4862667;29;20082;-92
2021/08/22 10:19:56;;;;;;;11.68;4.32;;;18.10;99.90;;;;;;4875901;29;20028;-95
2021/08/22 10:22:25;;;;;;;8.43;4.15;;;18.20;99.90;;;;;;4943427;29;20028;-91
2021/08/22 10:24:54;;;;;;;8.50;4.63;;;18.30;99.90;;;;;;4943380;29;20039;-94
2021/08/22 10:27:37;;;;;;;6.45;4.35;;;18.30;99.90;;;;;;4933628;29;20063;-94
2021/08/22 10:30:04;;;;;;;6.80;4.97;;;18.40;99.90;;;;;;4942497;29;20048;-93
2021/08/22 10:32:53;;;;;;;6.47;3.70;;;18.50;99.90;;;;;;4936805;29;20032;-93
2021/08/22 10:35:21;;;;;;;8.93;5.00;;;18.60;99.90;;;;;;4936221;29;20027;-93
2021/08/22 10:37:46;;;;;;;9.85;4.18;;;18.80;99.90;;;;;;4933911;29;20023;-93
2021/08/22 10:40:24;;;;;;;9.73;4.30;;;18.90;99.90;;;;;;4934292;29;20020;-93
2021/08/22 10:43:10;;;;;;;7.00;3.92;;;19.10;99.90;;;;;;4933925;29;20079;-93
2021/08/22 10:45:51;;;;;;;8.73;3.47;;;19.30;99.90;;;;;;4913615;29;20032;-92
2021/08/22 10:48:23;;;;;;;6.88;3.45;;;19.50;99.90;;;;;;4910891;29;20035;-92
2021/08/22 10:51:12;;;;;;;6.03;3.10;;;19.60;99.90;;;;;;4914975;29;20012;-93
2021/08/22 10:53:43;;;;;;;11.70;4.45;;;19.70;99.90;;;;;;4916807;29;20043;-92
2021/08/22 10:56:24;;;;;;;5.45;3.58;;;19.80;99.90;;;;;;4927402;29;20024;-92
2021/08/22 10:58:56;;;;;;;6.68;3.80;;;19.80;99.90;;;;;;4921758;29;20482;-91
2021/08/22 11:01:22;;;;;;;4.15;3.33;;;19.90;99.90;;;;;;4921406;29;20036;-91
2021/08/22 11:04:04;;;;;;;13.38;3.30;;;19.90;99.90;;;;;;4921919;29;20095;-90
2021/08/22 11:06:32;;;;;;;7.43;3.60;;;19.90;99.90;;;;;;4921427;29;20051;-90
2021/08/22 11:08:58;;;;;;;7.18;3.10;;;20.00;99.90;;;;;;4921145;29;20048;-91
2021/08/22 11:11:23;;;;;;;5.70;3.30;;;20.00;99.90;;;;;;4921802;29;20390;-90
2021/08/22 11:13:54;;;;;;;4.95;3.10;;;20.00;99.90;;;;;;4914321;29;20051;-91
2021/08/22 11:16:20;;;;;;;7.05;3.40;;;20.00;99.90;;;;;;4921209;29;20027;-91
2021/08/22 11:18:46;;;;;;;5.60;3.00;;;20.00;99.90;;;;;;4916826;29;20035;-95
2021/08/22 11:21:13;;;;;;;5.75;3.65;;;20.10;99.90;;;;;;4921489;29;20030;-91
2021/08/22 11:23:39;;;;;;;7.20;2.83;;;20.10;99.90;;;;;;4918974;29;20028;-93
2021/08/22 11:26:07;;;;;;;6.57;2.78;;;20.20;99.90;;;;;;4910893;29;20481;-91
2021/08/22 11:28:33;;;;;;;4.40;3.08;;;20.30;99.90;;;;;;4921791;29;20030;-91
2021/08/22 11:30:58;;;;;;;7.03;3.38;;;20.30;99.90;;;;;;4920121;29;20020;-93
2021/08/22 11:33:29;;;;;;;5.68;2.63;;;20.50;99.90;;;;;;4907675;29;20047;-93
2021/08/22 11:35:55;;;;;;;3.90;2.83;;;20.70;99.90;;;;;;4920650;29;20079;-92
2021/08/22 11:38:21;;;;;;;8.77;3.10;;;20.90;99.90;;;;;;4922037;29;20035;-92
2021/08/22 11:40:47;;;;;;;6.88;3.20;;;21.10;99.90;;;;;;4913847;29;20497;-92
2021/08/22 11:43:14;;;;;;;7.70;2.83;;;21.30;99.90;;;;;;4920726;29;20458;-92
2021/08/22 11:45:44;;;;;;;5.70;2.85;;;21.50;99.90;;;;;;4920254;29;20031;-93
2021/08/22 11:48:21;;;;;;;3.38;2.80;;;21.50;99.90;;;;;;4910497;29;20031;-92
2021/08/22 11:50:48;;;;;;;4.22;2.20;;;21.60;99.90;;;;;;4908390;29;20068;-93
2021/08/22 11:53:16;;;;;;;5.80;3.00;;;21.60;99.90;;;;;;4921311;29;20063;-92
2021/08/22 11:55:43;;;;;;;4.85;2.90;;;21.60;99.90;;;;;;4921556;29;20055;-92
2021/08/22 11:58:10;;;;;;;3.05;2.58;;;21.60;99.90;;;;;;4908077;29;20028;-92
2021/08/22 12:00:40;;;;;;;5.10;2.95;;;21.60;99.90;;;;;;4922000;29;20032;-91
2021/08/22 12:03:11;;;;;;;8.65;3.40;;;21.70;99.90;;;;;;4921901;29;20057;-91
2021/08/22 12:06:07;;;;;;;6.43;3.00;;;21.70;99.90;;;;;;4926540;29;20019;-92
2021/08/22 12:08:34;;;;;;;4.53;2.65;;;21.70;99.90;;;;;;4918509;29;20079;-92
2021/08/22 12:11:10;;;;;;;4.70;2.60;;;21.80;99.90;;;;;;4927364;29;20114;-92
2021/08/22 12:13:41;;;;;;;4.18;2.58;;;22.00;99.90;;;;;;4920516;29;20043;-92
2021/08/22 12:16:26;;;;;;;4.95;2.60;;;22.30;99.90;;;;;;4933740;29;20393;-93
2021/08/22 12:18:53;;;;;;;6.78;2.63;;;22.60;99.90;;;;;;4915666;29;20119;-92
2021/08/22 12:21:21;;;;;;;5.65;2.70;;;22.80;99.40;;;;;;4930579;29;20046;-91
2021/08/22 12:23:56;;;;;;;5.50;2.38;;;22.90;98.40;;;;;;4920567;29;20038;-91
2021/08/22 12:26:26;;;;;;;3.63;2.50;;;22.90;97.60;;;;;;4946423;28;20514;-92
2021/08/22 12:29:25;;;;;;;4.30;2.80;;;22.80;97.10;;;;;;4938684;29;20027;-92
2021/08/22 12:31:54;;;;;;;6.47;2.42;;;22.60;97.10;;;;;;4951488;28;20054;-92
2021/08/22 12:34:20;;;;;;;6.68;3.08;;;22.40;97.30;;;;;;4950356;28;20027;-92
2021/08/22 12:36:48;;;;;;;5.25;2.45;;;22.20;97.50;;;;;;4953790;28;20082;-91
2021/08/22 12:39:16;;;;;;;5.50;2.42;;;22.30;97.80;;;;;;4958974;28;20026;-92
2021/08/22 12:41:47;;;;;;;4.85;2.60;;;22.50;97.70;;;;;;4945624;29;20078;-92
2021/08/22 12:44:19;;;;;;;;;;;22.90;97.60;;;;;;4920933;29;20103;-92
2021/08/22 12:46:51;;;;;;;4.45;2.08;;;23.20;97.00;;;;;;4932153;29;19906;-92